Time;durP1;ratioP1;P1;durP2;ratioP2;P2;SDS_P1;SDS_P2;PMS_P1;PMS_P2;Temp;Humidity;BMP_temperature;BMP_pressure;BME280_temperature;BME280_humidity;BME280_pressure;Samples;Min_cycle;Max_cycle;Signal;HPM_P1;HPM_P2
2022/03/21 00:15:03;;;;;;;;;;;;;;;10.47;nan;101859.63;5004060;28;19924;-71
2022/03/21 00:17:28;;;;;;;;;;;;;;;10.60;nan;101856.88;5007267;28;19972;-71
2022/03/21 00:19:54;;;;;;;;;;;;;;;10.67;nan;101863.38;5003325;28;19921;-71
2022/03/21 00:22:20;;;;;;;;;;;;;;;10.68;nan;101865.06;5009675;28;19948;-71
2022/03/21 00:24:45;;;;;;;;;;;;;;;10.68;nan;101866.84;5010200;28;20333;-71
2022/03/21 00:27:12;;;;;;;;;;;;;;;10.64;nan;101874.19;5006429;28;19917;-71
2022/03/21 00:29:38;;;;;;;;;;;;;;;10.58;nan;101870.25;5003053;28;20341;-71
2022/03/21 00:32:05;;;;;;;;;;;;;;;10.60;nan;101872.75;5005371;28;19921;-71
2022/03/21 00:34:31;;;;;;;;;;;;;;;10.53;nan;101871.53;5008600;28;19917;-71
2022/03/21 00:36:57;;;;;;;;;;;;;;;10.48;nan;101865.75;5005087;28;19970;-71
2022/03/21 00:39:22;;;;;;;;;;;;;;;10.43;nan;101870.56;5009793;28;19917;-71
2022/03/21 00:41:48;;;;;;;;;;;;;;;10.31;nan;101867.06;5010103;28;19925;-71
2022/03/21 00:44:13;;;;;;;;;;;;;;;10.17;nan;101870.72;5008455;28;19917;-71
2022/03/21 00:46:38;;;;;;;;;;;;;;;10.09;nan;101868.66;5009920;28;19917;-71
2022/03/21 00:49:08;;;;;;;;;;;;;;;10.12;nan;101857.84;5009623;28;20040;-71
2022/03/21 00:51:33;;;;;;;;;;;;;;;10.09;nan;101858.09;5004979;28;20359;-71
2022/03/21 00:53:58;;;;;;;;;;;;;;;10.14;nan;101855.09;5003863;28;19922;-71
2022/03/21 00:56:23;;;;;;;;;;;;;;;10.16;nan;101861.13;5003348;28;19925;-71
2022/03/21 00:58:48;;;;;;;;;;;;;;;10.15;nan;101867.34;5007000;28;20581;-72
2022/03/21 01:01:14;;;;;;;;;;;;;;;10.23;nan;101850.91;5000248;28;20012;-71
2022/03/21 01:03:39;;;;;;;;;;;;;;;10.26;nan;101859.44;5008579;28;19921;-71
2022/03/21 01:06:04;;;;;;;;;;;;;;;10.24;nan;101856.06;5008634;28;19940;-71
2022/03/21 01:08:30;;;;;;;;;;;;;;;10.33;nan;101859.84;5008941;28;19929;-72
2022/03/21 01:10:55;;;;;;;;;;;;;;;10.37;nan;101861.31;5009844;28;19917;-71
2022/03/21 01:13:21;;;;;;;;;;;;;;;10.34;nan;101859.72;5007620;28;19924;-71
2022/03/21 01:15:46;;;;;;;;;;;;;;;10.29;nan;101867.16;5009725;28;19928;-71
2022/03/21 01:18:11;;;;;;;;;;;;;;;10.20;nan;101866.06;5009279;28;19913;-72
2022/03/21 01:20:37;;;;;;;;;;;;;;;10.20;nan;101865.19;5005263;28;19917;-71
2022/03/21 01:23:02;;;;;;;;;;;;;;;10.18;nan;101867.97;5008939;28;19974;-71
2022/03/21 01:25:27;;;;;;;;;;;;;;;10.09;nan;101867.81;5009935;28;20367;-71
2022/03/21 01:27:53;;;;;;;;;;;;;;;9.97;nan;101859.00;5003708;28;20291;-71
2022/03/21 01:30:18;;;;;;;;;;;;;;;9.81;nan;101867.22;5003678;28;20008;-72
2022/03/21 01:32:45;;;;;;;;;;;;;;;9.61;nan;101862.59;5009155;28;19917;-71
2022/03/21 01:35:11;;;;;;;;;;;;;;;9.46;nan;101870.69;4999368;28;20024;-71
2022/03/21 01:37:37;;;;;;;;;;;;;;;9.40;nan;101871.09;5002016;28;20302;-71
2022/03/21 01:40:02;;;;;;;;;;;;;;;9.31;nan;101864.69;5004272;28;19917;-71
2022/03/21 01:42:27;;;;;;;;;;;;;;;9.31;nan;101866.50;5008993;28;19971;-71
2022/03/21 01:44:53;;;;;;;;;;;;;;;9.25;nan;101865.16;5009187;28;19924;-71
2022/03/21 01:47:18;;;;;;;;;;;;;;;9.13;nan;101864.22;5008019;28;19918;-71
2022/03/21 01:49:44;;;;;;;;;;;;;;;9.04;nan;101861.41;5009403;28;20272;-71
2022/03/21 01:52:10;;;;;;;;;;;;;;;9.12;nan;101865.16;5008176;28;19959;-71
2022/03/21 01:57:20;;;;;;;;;;;;;;;9.33;nan;101869.88;5009664;28;19928;-71
2022/03/21 01:59:46;;;;;;;;;;;;;;;9.36;nan;101865.19;5006638;28;19925;-71
2022/03/21 02:02:12;;;;;;;;;;;;;;;9.29;nan;101866.59;5006159;28;20384;-71
2022/03/21 02:04:37;;;;;;;;;;;;;;;9.23;nan;101864.41;5008133;28;19917;-71
2022/03/21 02:07:02;;;;;;;;;;;;;;;9.20;nan;101871.69;5009014;28;19913;-71
2022/03/21 02:09:29;;;;;;;;;;;;;;;9.13;nan;101869.50;5009196;28;20079;-71
2022/03/21 02:11:54;;;;;;;;;;;;;;;9.03;nan;101870.25;5008413;28;20289;-71
2022/03/21 02:14:20;;;;;;;;;;;;;;;9.01;nan;101874.78;5007291;28;19924;-71
2022/03/21 02:16:45;;;;;;;;;;;;;;;8.99;nan;101871.44;5004550;28;20382;-71
2022/03/21 02:19:16;;;;;;;;;;;;;;;8.95;nan;101876.06;5012822;28;19993;-71
2022/03/21 02:21:57;;;;;;;;;;;;;;;8.85;nan;101881.16;5012114;28;20499;-71
2022/03/21 02:24:29;;;;;;;;;;;;;;;8.70;nan;101879.59;5010859;28;19944;-71
2022/03/21 02:26:56;;;;;;;;;;;;;;;8.52;nan;101879.06;5012588;28;19917;-71
2022/03/21 02:29:22;;;;;;;;;;;;;;;8.40;nan;101882.53;5012345;28;19922;-71
2022/03/21 02:31:48;;;;;;;;;;;;;;;8.23;nan;101887.13;5011098;28;20441;-71
2022/03/21 02:34:13;;;;;;;;;;;;;;;8.04;nan;101884.03;5006685;28;19922;-71
2022/03/21 02:36:38;;;;;;;;;;;;;;;7.94;nan;101881.16;5012942;28;19913;-71
2022/03/21 02:39:04;;;;;;;;;;;;;;;7.87;nan;101882.53;5012422;28;20254;-71
2022/03/21 02:41:29;;;;;;;;;;;;;;;7.84;nan;101878.28;5005308;28;19956;-71
2022/03/21 02:43:55;;;;;;;;;;;;;;;7.91;nan;101881.34;5012675;28;19917;-71
2022/03/21 02:46:21;;;;;;;;;;;;;;;7.87;nan;101880.72;5008531;28;19921;-71
2022/03/21 02:48:46;;;;;;;;;;;;;;;7.84;nan;101888.84;5011241;28;19921;-71
2022/03/21 02:51:12;;;;;;;;;;;;;;;7.75;nan;101891.22;5009227;28;19956;-71
2022/03/21 02:53:38;;;;;;;;;;;;;;;7.62;nan;101893.78;5011706;28;19917;-71
2022/03/21 02:56:04;;;;;;;;;;;;;;;7.47;nan;101895.63;5011682;28;20453;-71
2022/03/21 02:58:29;;;;;;;;;;;;;;;7.33;nan;101896.50;5005317;28;19917;-71
2022/03/21 03:01:04;;;;;;;;;;;;;;;7.22;nan;101897.19;5013342;28;19917;-71
2022/03/21 03:03:30;;;;;;;;;;;;;;;7.11;nan;101901.44;5011954;28;19928;-70
2022/03/21 03:05:55;;;;;;;;;;;;;;;7.00;nan;101902.91;5011978;28;19917;-71
2022/03/21 03:08:20;;;;;;;;;;;;;;;6.92;nan;101899.94;5003941;28;19921;-71
2022/03/21 03:10:45;;;;;;;;;;;;;;;6.83;nan;101905.75;5011872;28;19922;-71
2022/03/21 03:13:10;;;;;;;;;;;;;;;6.75;nan;101908.00;5007158;28;20049;-71
2022/03/21 03:15:35;;;;;;;;;;;;;;;6.67;nan;101908.44;5008388;28;19921;-71
2022/03/21 03:18:01;;;;;;;;;;;;;;;6.65;nan;101914.72;5011577;28;19920;-71
2022/03/21 03:20:26;;;;;;;;;;;;;;;6.60;nan;101912.38;5010952;28;19917;-71
2022/03/21 03:22:52;;;;;;;;;;;;;;;6.56;nan;101913.53;5010644;28;19917;-71
2022/03/21 03:25:18;;;;;;;;;;;;;;;6.49;nan;101920.09;5007671;28;20009;-71
2022/03/21 03:27:43;;;;;;;;;;;;;;;6.46;nan;101920.25;5004206;28;20012;-71
2022/03/21 03:30:08;;;;;;;;;;;;;;;6.46;nan;101918.47;5000091;28;19925;-71
2022/03/21 03:32:34;;;;;;;;;;;;;;;6.46;nan;101923.75;5008640;28;19925;-71
2022/03/21 03:34:59;;;;;;;;;;;;;;;6.54;nan;101923.28;4997725;28;19921;-71
2022/03/21 03:37:24;;;;;;;;;;;;;;;6.65;nan;101918.22;5001132;28;19924;-71
2022/03/21 03:39:49;;;;;;;;;;;;;;;6.68;nan;101917.19;5011280;28;19967;-71
2022/03/21 03:42:15;;;;;;;;;;;;;;;6.71;nan;101922.25;5010127;28;19918;-71
2022/03/21 03:44:40;;;;;;;;;;;;;;;6.73;nan;101920.41;5011164;28;19917;-71
2022/03/21 03:47:05;;;;;;;;;;;;;;;6.79;nan;101918.25;5007877;28;20008;-71
2022/03/21 03:49:30;;;;;;;;;;;;;;;6.75;nan;101921.16;5010829;28;19987;-71
2022/03/21 03:51:55;;;;;;;;;;;;;;;6.71;nan;101924.91;5006533;28;19947;-71
2022/03/21 03:54:21;;;;;;;;;;;;;;;6.81;nan;101926.84;5005855;28;19917;-71
2022/03/21 03:56:46;;;;;;;;;;;;;;;6.86;nan;101928.38;5011513;28;20247;-71
2022/03/21 03:59:11;;;;;;;;;;;;;;;6.84;nan;101927.63;5010307;28;19925;-71
2022/03/21 04:01:38;;;;;;;;;;;;;;;6.87;nan;101923.03;5009492;28;20361;-71
2022/03/21 04:04:03;;;;;;;;;;;;;;;6.92;nan;101920.97;5011030;28;20011;-71
2022/03/21 04:06:28;;;;;;;;;;;;;;;6.91;nan;101919.28;5011995;28;20351;-71
2022/03/21 04:08:54;;;;;;;;;;;;;;;6.88;nan;101924.72;5011737;28;20030;-71
2022/03/21 04:11:19;;;;;;;;;;;;;;;6.77;nan;101932.44;5005472;28;19984;-71
2022/03/21 04:13:46;;;;;;;;;;;;;;;6.63;nan;101932.41;5011799;28;19929;-71
2022/03/21 04:16:12;;;;;;;;;;;;;;;6.50;nan;101937.53;5010228;28;20012;-71
2022/03/21 04:18:37;;;;;;;;;;;;;;;6.40;nan;101937.22;5008857;28;20004;-71
2022/03/21 04:21:03;;;;;;;;;;;;;;;6.38;nan;101939.94;5018452;28;20008;-71
2022/03/21 04:23:28;;;;;;;;;;;;;;;6.55;nan;101938.97;5009759;28;20021;-71
2022/03/21 04:25:53;;;;;;;;;;;;;;;6.68;nan;101948.75;5007829;28;20361;-71
2022/03/21 04:28:18;;;;;;;;;;;;;;;6.78;nan;101947.25;4998921;28;19992;-71
2022/03/21 04:30:44;;;;;;;;;;;;;;;6.86;nan;101952.88;5003591;28;19917;-71
2022/03/21 04:33:10;;;;;;;;;;;;;;;6.90;nan;101957.03;5014929;28;19921;-71
2022/03/21 04:35:36;;;;;;;;;;;;;;;6.96;nan;101954.03;5002760;28;19936;-71
2022/03/21 04:38:01;;;;;;;;;;;;;;;7.08;nan;101939.28;5009988;28;19978;-71
2022/03/21 04:40:26;;;;;;;;;;;;;;;7.17;nan;101951.84;5008896;28;20478;-71
2022/03/21 04:42:51;;;;;;;;;;;;;;;7.22;nan;101957.69;5010293;28;19921;-71
2022/03/21 04:45:17;;;;;;;;;;;;;;;7.24;nan;101960.22;5008745;28;19925;-71
2022/03/21 04:47:42;;;;;;;;;;;;;;;7.27;nan;101969.69;5009829;28;20233;-71
2022/03/21 04:50:09;;;;;;;;;;;;;;;7.28;nan;101969.63;5009501;28;20052;-71
2022/03/21 04:52:34;;;;;;;;;;;;;;;7.31;nan;101977.31;5009043;28;20004;-71
2022/03/21 04:55:00;;;;;;;;;;;;;;;7.30;nan;101975.63;5010036;28;19968;-71
2022/03/21 04:57:26;;;;;;;;;;;;;;;7.31;nan;101974.69;5002322;28;20338;-71
2022/03/21 04:59:52;;;;;;;;;;;;;;;7.31;nan;101979.94;4998274;28;19968;-71
2022/03/21 05:02:17;;;;;;;;;;;;;;;7.26;nan;101976.75;5012040;28;19936;-71
2022/03/21 05:04:42;;;;;;;;;;;;;;;7.20;nan;101978.00;5010075;28;19913;-71
2022/03/21 05:07:11;;;;;;;;;;;;;;;7.18;nan;101986.91;5001749;28;20155;-71
2022/03/21 05:09:39;;;;;;;;;;;;;;;7.15;nan;101982.69;5009022;28;19921;-71
2022/03/21 05:12:04;;;;;;;;;;;;;;;7.12;nan;101979.38;5005282;28;19917;-71
2022/03/21 05:14:29;;;;;;;;;;;;;;;7.19;nan;101988.59;5010782;28;20522;-71
2022/03/21 05:16:54;;;;;;;;;;;;;;;7.17;nan;101985.22;5009763;28;19953;-71
2022/03/21 05:19:20;;;;;;;;;;;;;;;7.14;nan;101986.25;5007627;28;20382;-71
2022/03/21 05:21:45;;;;;;;;;;;;;;;7.12;nan;101993.38;5009331;28;19928;-71
2022/03/21 05:32:22;;;;;;;;;;;;;;;6.98;nan;101988.97;5008883;28;20016;-71
2022/03/21 05:37:31;;;;;;;;;;;;;;;6.95;nan;101989.13;5008904;28;19970;-71
2022/03/21 05:42:40;;;;;;;;;;;;;;;6.94;nan;101987.47;4999280;28;20032;-71
2022/03/21 05:45:06;;;;;;;;;;;;;;;6.93;nan;101993.63;5007701;28;19997;-71
2022/03/21 05:48:50;;;;;;;;;;;;;;;6.93;nan;101991.00;5008811;28;19960;-71
2022/03/21 05:50:16;;;;;;;;;;;;;;;6.93;nan;101998.06;5008499;28;19917;-71
2022/03/21 05:52:41;;;;;;;;;;;;;;;6.92;nan;101997.22;5010870;28;20004;-71
2022/03/21 05:55:06;;;;;;;;;;;;;;;6.96;nan;102001.38;5013451;28;19917;-71
2022/03/21 05:57:32;;;;;;;;;;;;;;;7.01;nan;102003.72;5012835;28;20271;-71
2022/03/21 06:02:40;;;;;;;;;;;;;;;7.06;nan;102011.34;5011992;28;19925;-71
2022/03/21 06:05:06;;;;;;;;;;;;;;;7.08;nan;102018.19;5012851;28;19917;-71
2022/03/21 06:07:31;;;;;;;;;;;;;;;7.11;nan;102017.16;5011700;28;20003;-71
2022/03/21 06:09:57;;;;;;;;;;;;;;;7.15;nan;102016.03;5007467;28;20402;-71
2022/03/21 06:12:22;;;;;;;;;;;;;;;7.28;nan;102018.75;5002838;28;19961;-71
2022/03/21 06:14:47;;;;;;;;;;;;;;;7.46;nan;102025.53;5011505;28;19925;-71
2022/03/21 06:17:12;;;;;;;;;;;;;;;7.70;nan;102023.16;5012774;28;19921;-71
2022/03/21 06:19:37;;;;;;;;;;;;;;;7.92;nan;102024.44;5008915;28;20027;-71
2022/03/21 06:22:03;;;;;;;;;;;;;;;8.13;nan;102023.06;5007595;28;20377;-71
2022/03/21 06:24:28;;;;;;;;;;;;;;;8.40;nan;102032.78;5004261;28;19926;-71
2022/03/21 06:26:53;;;;;;;;;;;;;;;8.66;nan;102041.59;5012316;28;19932;-71
2022/03/21 06:29:18;;;;;;;;;;;;;;;8.93;nan;102044.19;5011756;28;20016;-71
2022/03/21 06:31:44;;;;;;;;;;;;;;;9.25;nan;102043.78;5009239;28;19971;-71
2022/03/21 06:34:09;;;;;;;;;;;;;;;9.57;nan;102052.94;5000877;28;20254;-71
2022/03/21 06:36:35;;;;;;;;;;;;;;;9.82;nan;102059.16;5012367;28;19943;-71
2022/03/21 06:39:00;;;;;;;;;;;;;;;10.07;nan;102060.84;5011168;28;20248;-71
2022/03/21 06:41:25;;;;;;;;;;;;;;;10.57;nan;102085.44;5012262;28;19937;-72
2022/03/21 06:43:50;;;;;;;;;;;;;;;10.81;nan;102066.88;5012009;28;19923;-71
2022/03/21 06:46:15;;;;;;;;;;;;;;;11.17;nan;102070.34;5011397;28;20005;-72
2022/03/21 06:48:41;;;;;;;;;;;;;;;11.41;nan;102075.53;5008407;28;19984;-72
2022/03/21 06:51:06;;;;;;;;;;;;;;;11.71;nan;102081.22;5011658;28;19924;-72
2022/03/21 06:53:31;;;;;;;;;;;;;;;11.90;nan;102077.03;5011807;28;20199;-72
2022/03/21 06:55:56;;;;;;;;;;;;;;;11.97;nan;102073.91;5019791;28;19983;-71
2022/03/21 06:58:22;;;;;;;;;;;;;;;11.91;nan;102083.16;5010097;28;19940;-72
2022/03/21 07:00:47;;;;;;;;;;;;;;;11.78;nan;102088.56;5006666;28;19957;-72
2022/03/21 07:03:15;;;;;;;;;;;;;;;11.57;nan;102091.09;5011510;28;20366;-72
2022/03/21 07:05:40;;;;;;;;;;;;;;;11.40;nan;102096.88;5010991;28;19921;-71
2022/03/21 07:08:05;;;;;;;;;;;;;;;11.32;nan;102102.75;5010516;28;19924;-72
2022/03/21 07:10:34;;;;;;;;;;;;;;;11.29;nan;102099.50;5005315;28;19948;-71
2022/03/21 07:13:04;;;;;;;;;;;;;;;11.29;nan;102102.13;5006393;28;19929;-71
2022/03/21 07:15:29;;;;;;;;;;;;;;;11.38;nan;102106.72;5007048;28;19968;-71
2022/03/21 07:17:58;;;;;;;;;;;;;;;11.56;nan;102107.09;5011785;28;19953;-72
2022/03/21 07:20:25;;;;;;;;;;;;;;;11.78;nan;102109.78;5008020;28;19971;-72
2022/03/21 07:22:51;;;;;;;;;;;;;;;12.04;nan;102110.38;5005342;28;19925;-72
2022/03/21 07:25:16;;;;;;;;;;;;;;;12.38;nan;102112.13;5007900;28;19924;-72
2022/03/21 07:27:45;;;;;;;;;;;;;;;12.65;nan;102117.81;5007696;28;19918;-72
2022/03/21 07:30:12;;;;;;;;;;;;;;;13.01;nan;102113.06;5001633;28;19979;-72
2022/03/21 07:32:37;;;;;;;;;;;;;;;13.36;nan;102119.91;5011949;28;19920;-72
2022/03/21 07:35:03;;;;;;;;;;;;;;;13.63;nan;102118.50;5001666;28;19918;-72
2022/03/21 07:37:28;;;;;;;;;;;;;;;14.03;nan;102123.84;5009209;28;20012;-72
2022/03/21 07:39:53;;;;;;;;;;;;;;;14.36;nan;102121.84;5010815;28;19920;-72
2022/03/21 07:42:19;;;;;;;;;;;;;;;14.52;nan;102118.66;5008685;28;20381;-72
2022/03/21 07:47:28;;;;;;;;;;;;;;;15.10;nan;102109.84;5009068;28;19925;-72
2022/03/21 07:49:55;;;;;;;;;;;;;;;15.49;nan;102113.22;5010538;28;20365;-72
2022/03/21 07:52:20;;;;;;;;;;;;;;;15.95;nan;102111.56;5010847;28;19917;-72
2022/03/21 07:54:53;;;;;;;;;;;;;;;16.40;nan;102108.06;5011017;28;20457;-72
2022/03/21 07:57:18;;;;;;;;;;;;;;;16.87;nan;102112.34;5006397;28;19917;-72
2022/03/21 07:59:44;;;;;;;;;;;;;;;17.12;nan;102116.88;5006255;28;19917;-72
2022/03/21 08:02:09;;;;;;;;;;;;;;;17.22;nan;102123.97;5011633;28;19979;-73
2022/03/21 08:04:34;;;;;;;;;;;;;;;17.44;nan;102120.75;5011056;28;20338;-73
2022/03/21 08:06:59;;;;;;;;;;;;;;;17.76;nan;102119.28;5007354;28;19917;-72
2022/03/21 08:09:27;;;;;;;;;;;;;;;17.90;nan;102113.34;5016118;28;20265;-72
2022/03/21 08:11:52;;;;;;;;;;;;;;;17.88;nan;102126.06;5010543;28;19943;-72
2022/03/21 08:14:17;;;;;;;;;;;;;;;18.09;nan;102125.63;5007987;28;19922;-73
2022/03/21 08:16:43;;;;;;;;;;;;;;;18.50;nan;102130.25;5010268;28;20163;-73
2022/03/21 08:19:08;;;;;;;;;;;;;;;18.81;nan;102134.00;5010170;28;20000;-73
2022/03/21 08:21:33;;;;;;;;;;;;;;;19.07;nan;102138.38;5011476;28;20024;-73
2022/03/21 08:23:59;;;;;;;;;;;;;;;19.17;nan;102128.31;5011352;28;21013;-73
2022/03/21 08:26:24;;;;;;;;;;;;;;;19.47;nan;102134.78;5015319;28;20461;-73
2022/03/21 08:28:49;;;;;;;;;;;;;;;19.88;nan;102139.22;5010939;28;19921;-73
2022/03/21 08:31:15;;;;;;;;;;;;;;;20.16;nan;102134.22;5010550;28;20009;-74
2022/03/21 08:33:41;;;;;;;;;;;;;;;20.33;nan;102141.19;5013162;28;20003;-73
2022/03/21 08:36:06;;;;;;;;;;;;;;;20.67;nan;102131.09;5010531;28;19952;-73
2022/03/21 08:38:31;;;;;;;;;;;;;;;20.93;nan;102138.78;5008474;28;20494;-74
2022/03/21 08:40:58;;;;;;;;;;;;;;;20.97;nan;102140.06;5008877;28;19956;-71
2022/03/21 08:43:23;;;;;;;;;;;;;;;21.19;nan;102135.69;5008657;28;19917;-71
2022/03/21 08:45:48;;;;;;;;;;;;;;;21.42;nan;102131.09;5011684;28;20079;-71
2022/03/21 08:48:13;;;;;;;;;;;;;;;21.76;nan;102126.19;5005981;28;20018;-71
2022/03/21 08:50:39;;;;;;;;;;;;;;;22.15;nan;102125.84;5009740;28;19917;-71
2022/03/21 08:53:04;;;;;;;;;;;;;;;22.54;nan;102127.34;5010482;28;19928;-71
2022/03/21 08:55:30;;;;;;;;;;;;;;;22.97;nan;102123.78;5011530;28;19925;-71
2022/03/21 08:57:55;;;;;;;;;;;;;;;23.17;nan;102129.34;5010928;28;20382;-71
2022/03/21 09:00:20;;;;;;;;;;;;;;;23.37;nan;102124.13;5006078;28;19925;-71
2022/03/21 09:02:49;;;;;;;;;;;;;;;23.61;nan;102120.09;5010050;28;20286;-71
2022/03/21 09:05:14;;;;;;;;;;;;;;;23.98;nan;102123.41;5007667;28;19921;-71
2022/03/21 09:07:40;;;;;;;;;;;;;;;24.25;nan;102130.56;5008255;28;19926;-71
2022/03/21 09:10:07;;;;;;;;;;;;;;;24.32;nan;102123.31;5010878;28;19925;-71
2022/03/21 09:12:32;;;;;;;;;;;;;;;24.27;nan;102131.22;5010842;28;19918;-71
2022/03/21 09:14:59;;;;;;;;;;;;;;;24.59;nan;102134.22;5011182;28;20363;-71
2022/03/21 09:17:25;;;;;;;;;;;;;;;24.92;nan;102133.41;5008496;28;19918;-71
2022/03/21 09:19:50;;;;;;;;;;;;;;;25.17;nan;102130.88;5006078;28;19925;-71
2022/03/21 09:22:15;;;;;;;;;;;;;;;25.26;nan;102135.06;5006975;28;19932;-72
2022/03/21 09:24:40;;;;;;;;;;;;;;;25.54;nan;102125.88;5004405;28;19914;-72
2022/03/21 09:27:05;;;;;;;;;;;;;;;25.86;nan;102124.09;5011213;28;20437;-71
2022/03/21 09:29:31;;;;;;;;;;;;;;;25.98;nan;102122.41;4995723;28;20397;-71
2022/03/21 09:31:56;;;;;;;;;;;;;;;26.45;nan;102122.94;5009732;28;19921;-71
2022/03/21 09:34:21;;;;;;;;;;;;;;;27.19;nan;102114.25;5011196;28;19952;-72
2022/03/21 09:36:47;;;;;;;;;;;;;;;27.58;nan;102125.75;5014902;28;19932;-71
2022/03/21 09:39:13;;;;;;;;;;;;;;;27.81;nan;102122.34;5012522;28;20000;-71
2022/03/21 09:41:38;;;;;;;;;;;;;;;28.10;nan;102116.16;5006721;28;20306;-72
2022/03/21 09:44:07;;;;;;;;;;;;;;;28.05;nan;102110.56;5005468;28;19917;-72
2022/03/21 09:46:32;;;;;;;;;;;;;;;27.39;nan;102116.78;5004227;28;20366;-72
2022/03/21 09:48:57;;;;;;;;;;;;;;;27.54;nan;102107.19;5003479;28;19965;-71
2022/03/21 09:51:27;;;;;;;;;;;;;;;28.02;nan;102104.75;5006238;28;20246;-71
2022/03/21 09:53:53;;;;;;;;;;;;;;;28.47;nan;102102.47;5001046;28;19956;-72
2022/03/21 09:56:18;;;;;;;;;;;;;;;28.58;nan;102109.81;5009485;28;19975;-72
2022/03/21 09:58:44;;;;;;;;;;;;;;;29.06;nan;102102.53;5002089;28;20314;-71
2022/03/21 10:01:12;;;;;;;;;;;;;;;29.17;nan;102111.78;5008039;28;19921;-72
2022/03/21 10:03:38;;;;;;;;;;;;;;;29.43;nan;102105.81;5003036;28;20445;-72
2022/03/21 10:06:23;;;;;;;;;;;;;;;29.50;nan;102105.69;5001811;28;20016;-72
2022/03/21 10:08:49;;;;;;;;;;;;;;;29.96;nan;102108.53;5006245;28;19922;-72
2022/03/21 10:11:14;;;;;;;;;;;;;;;30.27;nan;102101.78;5014134;28;19920;-72
2022/03/21 10:13:39;;;;;;;;;;;;;;;30.08;nan;102106.56;5008433;28;19964;-72
2022/03/21 10:16:05;;;;;;;;;;;;;;;30.30;nan;102108.66;5008823;28;19918;-72
2022/03/21 10:18:30;;;;;;;;;;;;;;;30.34;nan;102102.44;5008500;28;19933;-72
2022/03/21 10:21:08;;;;;;;;;;;;;;;30.35;nan;102100.56;5005651;28;20489;-72
2022/03/21 10:23:34;;;;;;;;;;;;;;;30.51;nan;102097.03;5012534;28;19918;-72
2022/03/21 10:26:00;;;;;;;;;;;;;;;30.92;nan;102097.69;5017409;28;19925;-72
2022/03/21 10:28:35;;;;;;;;;;;;;;;30.32;nan;102087.38;5014298;28;20293;-72
2022/03/21 10:31:01;;;;;;;;;;;;;;;30.49;nan;102090.97;5014660;28;19928;-72
2022/03/21 10:33:26;;;;;;;;;;;;;;;30.58;nan;102085.91;5007955;28;20449;-72
2022/03/21 10:35:52;;;;;;;;;;;;;;;30.00;nan;102093.34;5012786;28;20016;-72
2022/03/21 10:38:34;;;;;;;;;;;;;;;30.14;nan;102086.50;5014573;28;19921;-72
2022/03/21 10:41:09;;;;;;;;;;;;;;;30.55;nan;102089.16;5011149;28;19921;-72
2022/03/21 10:43:35;;;;;;;;;;;;;;;31.26;nan;102092.97;5019559;28;19928;-72
2022/03/21 10:46:02;;;;;;;;;;;;;;;30.50;nan;102086.34;5017552;28;20003;-72
2022/03/21 10:48:31;;;;;;;;;;;;;;;30.46;nan;102084.13;5009774;28;19929;-72
2022/03/21 10:50:57;;;;;;;;;;;;;;;31.07;nan;102086.16;5016198;28;20275;-72
2022/03/21 10:53:24;;;;;;;;;;;;;;;30.71;nan;102085.59;5005777;28;19949;-72
2022/03/21 10:56:09;;;;;;;;;;;;;;;30.80;nan;102092.28;5009940;28;20012;-72
2022/03/21 10:58:45;;;;;;;;;;;;;;;30.21;nan;102081.72;5015791;28;19924;-72
2022/03/21 11:01:18;;;;;;;;;;;;;;;30.12;nan;102080.47;5003023;28;20448;-72
2022/03/21 11:03:49;;;;;;;;;;;;;;;30.32;nan;102074.59;5012815;28;20111;-72
2022/03/21 11:06:15;;;;;;;;;;;;;;;31.06;nan;102070.84;5014187;28;19917;-72
2022/03/21 11:08:40;;;;;;;;;;;;;;;30.96;nan;102065.22;5020158;28;19924;-72
2022/03/21 11:11:08;;;;;;;;;;;;;;;30.78;nan;102071.78;5004407;28;20043;-72
2022/03/21 11:13:35;;;;;;;;;;;;;;;30.06;nan;102065.91;5010130;28;19924;-72
2022/03/21 11:16:01;;;;;;;;;;;;;;;29.97;nan;102061.94;5005021;28;19949;-72
2022/03/21 11:18:27;;;;;;;;;;;;;;;30.54;nan;102063.75;5010881;28;19957;-72
2022/03/21 11:20:52;;;;;;;;;;;;;;;30.15;nan;102058.19;5009192;28;20344;-72
2022/03/21 11:23:19;;;;;;;;;;;;;;;30.47;nan;102065.84;5010043;28;20081;-72
2022/03/21 11:25:51;;;;;;;;;;;;;;;30.71;nan;102063.75;5010358;28;20016;-72
2022/03/21 11:28:33;;;;;;;;;;;;;;;30.99;nan;102062.00;5002586;28;20298;-72
2022/03/21 11:30:58;;;;;;;;;;;;;;;30.65;nan;102062.84;5014543;28;19917;-72
2022/03/21 11:33:42;;;;;;;;;;;;;;;30.22;nan;102058.00;5007102;28;19917;-72
2022/03/21 11:36:09;;;;;;;;;;;;;;;30.02;nan;102047.56;5007782;28;20357;-72
2022/03/21 11:38:46;;;;;;;;;;;;;;;30.04;nan;102048.97;5010737;28;19916;-72
2022/03/21 11:41:20;;;;;;;;;;;;;;;29.67;nan;102051.25;5020161;28;19924;-72
2022/03/21 11:43:46;;;;;;;;;;;;;;;28.92;nan;102043.91;5005590;28;20386;-72
2022/03/21 11:46:19;;;;;;;;;;;;;;;28.00;nan;102041.63;5008145;28;19945;-72
2022/03/21 11:48:44;;;;;;;;;;;;;;;27.48;nan;102042.06;5026220;28;19922;-72
2022/03/21 11:51:18;;;;;;;;;;;;;;;27.48;nan;102036.63;5010232;28;20325;-72
2022/03/21 11:53:45;;;;;;;;;;;;;;;27.87;nan;102032.59;5003087;28;19928;-72
2022/03/21 11:56:29;;;;;;;;;;;;;;;27.49;nan;102027.44;5003565;28;19964;-72
2022/03/21 11:58:54;;;;;;;;;;;;;;;26.62;nan;102030.19;5004263;28;20004;-72
2022/03/21 12:01:19;;;;;;;;;;;;;;;26.54;nan;102022.34;5008816;28;19925;-72
2022/03/21 12:03:45;;;;;;;;;;;;;;;26.48;nan;102026.72;4999992;28;20060;-72
2022/03/21 12:06:19;;;;;;;;;;;;;;;26.40;nan;102027.84;5010530;28;19929;-72
2022/03/21 12:08:48;;;;;;;;;;;;;;;25.88;nan;102016.31;5014238;28;19925;-72
2022/03/21 12:11:33;;;;;;;;;;;;;;;24.89;nan;102009.38;5008017;28;20232;-72
2022/03/21 12:14:17;;;;;;;;;;;;;;;24.05;nan;102008.06;5018667;28;19951;-72
2022/03/21 12:16:42;;;;;;;;;;;;;;;23.61;nan;102010.19;5019008;28;19940;-72
2022/03/21 12:19:07;;;;;;;;;;;;;;;23.68;nan;102000.25;5010367;28;20298;-72
2022/03/21 12:21:33;;;;;;;;;;;;;;;23.79;nan;101998.88;5002851;28;19921;-72
2022/03/21 12:24:14;;;;;;;;;;;;;;;23.51;nan;101998.97;5006399;28;20048;-72
2022/03/21 12:26:53;;;;;;;;;;;;;;;23.36;nan;102000.94;5007813;28;20008;-72
2022/03/21 12:29:44;;;;;;;;;;;;;;;23.36;nan;101995.56;5012373;28;19921;-72
2022/03/21 12:32:22;;;;;;;;;;;;;;;23.18;nan;101986.13;5012423;28;19968;-72
2022/03/21 12:34:49;;;;;;;;;;;;;;;22.65;nan;101986.63;5025921;28;19963;-72
2022/03/21 12:37:40;;;;;;;;;;;;;;;22.89;nan;101982.63;5007964;28;20917;-72
2022/03/21 12:40:08;;;;;;;;;;;;;;;22.81;nan;101973.84;5022087;28;20007;-72
2022/03/21 12:42:33;;;;;;;;;;;;;;;22.31;nan;101984.69;5013755;28;19929;-72
2022/03/21 12:44:59;;;;;;;;;;;;;;;22.17;nan;101977.50;5009021;28;20326;-72
2022/03/21 12:47:24;;;;;;;;;;;;;;;21.93;nan;101981.38;5027995;28;19917;-71
2022/03/21 12:49:50;;;;;;;;;;;;;;;21.95;nan;101972.09;5007923;28;19921;-71
2022/03/21 12:52:26;;;;;;;;;;;;;;;22.13;nan;101978.88;5011737;28;19917;-71
2022/03/21 12:54:51;;;;;;;;;;;;;;;22.14;nan;101972.47;5008292;28;20020;-72
2022/03/21 12:57:16;;;;;;;;;;;;;;;22.23;nan;101966.78;5000161;28;20008;-72
2022/03/21 12:59:41;;;;;;;;;;;;;;;22.20;nan;101972.56;5005138;28;20064;-71
2022/03/21 13:02:06;;;;;;;;;;;;;;;22.40;nan;101969.19;5004354;28;20365;-71
2022/03/21 13:12:43;;;;;;;;;;;;;;;21.90;nan;101961.03;5011831;28;19925;-72
2022/03/21 13:15:09;;;;;;;;;;;;;;;21.77;nan;101961.75;5005700;28;19922;-72
2022/03/21 13:18:03;;;;;;;;;;;;;;;21.66;nan;101959.56;5004220;28;19924;-72
2022/03/21 13:20:40;;;;;;;;;;;;;;;21.32;nan;101958.31;5002951;28;19924;-71
2022/03/21 13:23:06;;;;;;;;;;;;;;;20.97;nan;101960.75;5011802;28;19971;-71
2022/03/21 13:25:34;;;;;;;;;;;;;;;20.82;nan;101951.84;4999749;28;19968;-72
2022/03/21 13:28:10;;;;;;;;;;;;;;;20.47;nan;101947.97;5006504;28;20357;-72
2022/03/21 13:30:36;;;;;;;;;;;;;;;20.37;nan;101948.22;5004290;28;19933;-72
2022/03/21 13:33:01;;;;;;;;;;;;;;;20.28;nan;101944.75;5015136;28;19921;-72
2022/03/21 13:35:27;;;;;;;;;;;;;;;20.30;nan;101947.28;5010966;28;19924;-72
2022/03/21 13:37:59;;;;;;;;;;;;;;;20.19;nan;101942.31;5007056;28;19928;-72
2022/03/21 13:40:27;;;;;;;;;;;;;;;20.14;nan;101941.03;5004111;28;20488;-72
2022/03/21 13:42:52;;;;;;;;;;;;;;;20.18;nan;101940.66;5010373;28;19925;-72